sensor_id;sensor_type;location;lat;lon;timestamp;P1;durP1;ratioP1;P2;durP2;ratioP2
34317;SDS011;20582;52.196;20.952;2022-07-29T00:01:46;10.32;;;4.68;;
34317;SDS011;20582;52.196;20.952;2022-07-29T00:04:12;10.73;;;4.70;;
34317;SDS011;20582;52.196;20.952;2022-07-29T00:06:38;8.98;;;4.38;;
34317;SDS011;20582;52.196;20.952;2022-07-29T00:09:04;13.05;;;5.00;;
34317;SDS011;20582;52.196;20.952;2022-07-29T00:11:30;12.48;;;4.60;;
34317;SDS011;20582;52.196;20.952;2022-07-29T00:13:56;15.00;;;3.85;;
34317;SDS011;20582;52.196;20.952;2022-07-29T00:16:23;12.02;;;4.88;;
34317;SDS011;20582;52.196;20.952;2022-07-29T00:18:49;12.00;;;4.45;;
34317;SDS011;20582;52.196;20.952;2022-07-29T00:21:15;9.80;;;4.18;;
34317;SDS011;20582;52.196;20.952;2022-07-29T00:23:41;11.30;;;4.20;;
34317;SDS011;20582;52.196;20.952;2022-07-29T00:26:07;13.23;;;4.10;;
34317;SDS011;20582;52.196;20.952;2022-07-29T00:28:33;12.25;;;3.78;;
34317;SDS011;20582;52.196;20.952;2022-07-29T00:30:59;12.00;;;3.67;;
34317;SDS011;20582;52.196;20.952;2022-07-29T00:33:25;10.05;;;3.92;;
34317;SDS011;20582;52.196;20.952;2022-07-29T00:35:51;8.55;;;4.10;;
34317;SDS011;20582;52.196;20.952;2022-07-29T00:38:17;9.85;;;4.00;;
34317;SDS011;20582;52.196;20.952;2022-07-29T00:40:44;9.48;;;3.95;;
34317;SDS011;20582;52.196;20.952;2022-07-29T00:43:11;10.23;;;3.70;;
34317;SDS011;20582;52.196;20.952;2022-07-29T00:45:37;11.50;;;3.90;;
34317;SDS011;20582;52.196;20.952;2022-07-29T00:48:03;8.45;;;3.72;;
34317;SDS011;20582;52.196;20.952;2022-07-29T00:50:30;9.32;;;3.53;;
34317;SDS011;20582;52.196;20.952;2022-07-29T00:52:57;8.90;;;3.47;;
34317;SDS011;20582;52.196;20.952;2022-07-29T00:55:23;8.75;;;3.67;;
34317;SDS011;20582;52.196;20.952;2022-07-29T00:57:49;9.40;;;3.70;;
34317;SDS011;20582;52.196;20.952;2022-07-29T01:00:17;6.43;;;3.22;;
34317;SDS011;20582;52.196;20.952;2022-07-29T01:02:44;10.85;;;3.50;;
34317;SDS011;20582;52.196;20.952;2022-07-29T01:05:10;10.10;;;3.45;;
34317;SDS011;20582;52.196;20.952;2022-07-29T01:07:37;12.60;;;3.58;;
34317;SDS011;20582;52.196;20.952;2022-07-29T01:10:04;10.23;;;3.22;;
34317;SDS011;20582;52.196;20.952;2022-07-29T01:12:31;8.20;;;3.72;;
34317;SDS011;20582;52.196;20.952;2022-07-29T01:14:59;5.68;;;3.20;;
34317;SDS011;20582;52.196;20.952;2022-07-29T01:19:55;9.57;;;3.55;;
34317;SDS011;20582;52.196;20.952;2022-07-29T01:28:01;8.55;;;3.72;;
34317;SDS011;20582;52.196;20.952;2022-07-29T01:30:22;7.85;;;3.10;;
34317;SDS011;20582;52.196;20.952;2022-07-29T01:32:51;7.68;;;3.17;;
34317;SDS011;20582;52.196;20.952;2022-07-29T01:35:26;10.02;;;3.30;;
34317;SDS011;20582;52.196;20.952;2022-07-29T01:38:00;9.30;;;3.30;;
34317;SDS011;20582;52.196;20.952;2022-07-29T01:40:29;7.85;;;3.22;;
34317;SDS011;20582;52.196;20.952;2022-07-29T01:42:57;8.57;;;3.08;;
34317;SDS011;20582;52.196;20.952;2022-07-29T01:45:28;8.50;;;3.65;;
34317;SDS011;20582;52.196;20.952;2022-07-29T01:50:36;7.53;;;3.25;;
34317;SDS011;20582;52.196;20.952;2022-07-29T01:53:04;8.55;;;2.88;;
34317;SDS011;20582;52.196;20.952;2022-07-29T01:55:32;11.88;;;3.13;;
34317;SDS011;20582;52.196;20.952;2022-07-29T01:58:00;6.75;;;2.92;;
34317;SDS011;20582;52.196;20.952;2022-07-29T02:00:26;13.00;;;3.10;;
34317;SDS011;20582;52.196;20.952;2022-07-29T02:02:53;7.13;;;3.03;;
34317;SDS011;20582;52.196;20.952;2022-07-29T02:05:20;8.05;;;2.78;;
34317;SDS011;20582;52.196;20.952;2022-07-29T02:07:47;6.60;;;2.75;;
34317;SDS011;20582;52.196;20.952;2022-07-29T02:10:14;7.68;;;3.00;;
34317;SDS011;20582;52.196;20.952;2022-07-29T02:12:41;10.68;;;3.00;;
34317;SDS011;20582;52.196;20.952;2022-07-29T02:15:08;7.25;;;2.78;;
34317;SDS011;20582;52.196;20.952;2022-07-29T02:17:36;6.90;;;2.90;;
34317;SDS011;20582;52.196;20.952;2022-07-29T02:20:04;5.30;;;2.67;;
34317;SDS011;20582;52.196;20.952;2022-07-29T02:22:31;6.45;;;2.97;;
34317;SDS011;20582;52.196;20.952;2022-07-29T02:24:59;8.52;;;3.10;;
34317;SDS011;20582;52.196;20.952;2022-07-29T02:27:26;9.93;;;2.88;;
34317;SDS011;20582;52.196;20.952;2022-07-29T02:29:54;10.88;;;2.97;;
34317;SDS011;20582;52.196;20.952;2022-07-29T02:32:21;9.73;;;3.03;;
34317;SDS011;20582;52.196;20.952;2022-07-29T02:34:48;7.35;;;3.08;;
34317;SDS011;20582;52.196;20.952;2022-07-29T02:37:16;9.57;;;3.30;;
34317;SDS011;20582;52.196;20.952;2022-07-29T02:39:42;6.30;;;2.80;;
34317;SDS011;20582;52.196;20.952;2022-07-29T02:42:10;10.52;;;2.90;;
34317;SDS011;20582;52.196;20.952;2022-07-29T02:44:38;7.57;;;2.65;;
34317;SDS011;20582;52.196;20.952;2022-07-29T02:47:39;7.65;;;3.25;;
34317;SDS011;20582;52.196;20.952;2022-07-29T02:50:00;4.88;;;2.75;;
34317;SDS011;20582;52.196;20.952;2022-07-29T02:52:31;6.25;;;3.03;;
34317;SDS011;20582;52.196;20.952;2022-07-29T02:55:22;8.57;;;2.88;;
34317;SDS011;20582;52.196;20.952;2022-07-29T02:57:59;9.02;;;3.20;;
34317;SDS011;20582;52.196;20.952;2022-07-29T03:00:29;8.70;;;3.00;;
34317;SDS011;20582;52.196;20.952;2022-07-29T03:02:58;6.85;;;3.05;;
34317;SDS011;20582;52.196;20.952;2022-07-29T03:05:25;5.32;;;2.85;;
34317;SDS011;20582;52.196;20.952;2022-07-29T03:07:55;9.00;;;2.88;;
34317;SDS011;20582;52.196;20.952;2022-07-29T03:10:23;7.00;;;2.78;;
34317;SDS011;20582;52.196;20.952;2022-07-29T03:12:49;8.32;;;3.08;;
34317;SDS011;20582;52.196;20.952;2022-07-29T03:15:15;6.85;;;2.75;;
34317;SDS011;20582;52.196;20.952;2022-07-29T03:17:42;6.10;;;2.42;;
34317;SDS011;20582;52.196;20.952;2022-07-29T03:20:09;9.27;;;3.08;;
34317;SDS011;20582;52.196;20.952;2022-07-29T03:22:39;7.07;;;2.63;;
34317;SDS011;20582;52.196;20.952;2022-07-29T03:25:11;5.63;;;2.88;;
34317;SDS011;20582;52.196;20.952;2022-07-29T03:27:37;8.30;;;2.95;;
34317;SDS011;20582;52.196;20.952;2022-07-29T03:30:04;6.07;;;2.40;;
34317;SDS011;20582;52.196;20.952;2022-07-29T03:32:31;7.53;;;2.80;;
34317;SDS011;20582;52.196;20.952;2022-07-29T03:34:57;8.15;;;2.90;;
34317;SDS011;20582;52.196;20.952;2022-07-29T03:37:23;6.05;;;2.60;;
34317;SDS011;20582;52.196;20.952;2022-07-29T03:39:49;8.18;;;2.45;;
34317;SDS011;20582;52.196;20.952;2022-07-29T03:42:15;6.45;;;2.33;;
34317;SDS011;20582;52.196;20.952;2022-07-29T03:44:43;5.72;;;2.63;;
34317;SDS011;20582;52.196;20.952;2022-07-29T03:47:10;6.25;;;2.75;;
34317;SDS011;20582;52.196;20.952;2022-07-29T03:49:36;7.90;;;3.25;;
34317;SDS011;20582;52.196;20.952;2022-07-29T03:52:03;7.03;;;2.60;;
34317;SDS011;20582;52.196;20.952;2022-07-29T03:54:29;8.02;;;3.00;;
34317;SDS011;20582;52.196;20.952;2022-07-29T03:56:55;7.60;;;2.70;;
34317;SDS011;20582;52.196;20.952;2022-07-29T03:59:24;6.72;;;2.70;;
34317;SDS011;20582;52.196;20.952;2022-07-29T04:01:50;9.52;;;2.83;;
34317;SDS011;20582;52.196;20.952;2022-07-29T04:04:17;5.80;;;2.63;;
34317;SDS011;20582;52.196;20.952;2022-07-29T04:06:44;6.88;;;2.88;;
34317;SDS011;20582;52.196;20.952;2022-07-29T04:09:10;7.32;;;2.97;;
34317;SDS011;20582;52.196;20.952;2022-07-29T04:11:36;5.97;;;2.65;;
34317;SDS011;20582;52.196;20.952;2022-07-29T04:14:03;5.93;;;2.83;;
34317;SDS011;20582;52.196;20.952;2022-07-29T04:16:29;7.60;;;2.80;;
34317;SDS011;20582;52.196;20.952;2022-07-29T04:18:55;6.65;;;2.60;;
34317;SDS011;20582;52.196;20.952;2022-07-29T04:21:21;5.55;;;2.65;;
34317;SDS011;20582;52.196;20.952;2022-07-29T04:23:47;6.43;;;2.70;;
34317;SDS011;20582;52.196;20.952;2022-07-29T04:26:15;7.70;;;2.75;;
34317;SDS011;20582;52.196;20.952;2022-07-29T04:28:41;7.10;;;2.97;;
34317;SDS011;20582;52.196;20.952;2022-07-29T04:31:08;9.05;;;2.97;;
34317;SDS011;20582;52.196;20.952;2022-07-29T04:33:34;9.15;;;3.17;;
34317;SDS011;20582;52.196;20.952;2022-07-29T04:36:00;8.13;;;2.92;;
34317;SDS011;20582;52.196;20.952;2022-07-29T04:38:26;7.80;;;2.80;;
34317;SDS011;20582;52.196;20.952;2022-07-29T04:40:52;5.80;;;2.53;;
34317;SDS011;20582;52.196;20.952;2022-07-29T04:43:19;8.10;;;2.55;;
34317;SDS011;20582;52.196;20.952;2022-07-29T04:45:45;6.25;;;2.53;;
34317;SDS011;20582;52.196;20.952;2022-07-29T04:48:11;5.45;;;2.45;;
34317;SDS011;20582;52.196;20.952;2022-07-29T04:50:38;5.22;;;2.17;;
34317;SDS011;20582;52.196;20.952;2022-07-29T04:53:04;6.70;;;2.83;;
34317;SDS011;20582;52.196;20.952;2022-07-29T04:55:30;7.00;;;2.42;;
34317;SDS011;20582;52.196;20.952;2022-07-29T04:57:56;5.50;;;2.30;;
34317;SDS011;20582;52.196;20.952;2022-07-29T05:00:22;10.23;;;2.80;;
34317;SDS011;20582;52.196;20.952;2022-07-29T05:02:49;3.15;;;1.90;;
34317;SDS011;20582;52.196;20.952;2022-07-29T05:05:15;6.80;;;2.50;;
34317;SDS011;20582;52.196;20.952;2022-07-29T05:07:41;5.38;;;1.85;;
34317;SDS011;20582;52.196;20.952;2022-07-29T05:10:07;8.05;;;2.28;;
34317;SDS011;20582;52.196;20.952;2022-07-29T05:12:33;7.70;;;2.50;;
34317;SDS011;20582;52.196;20.952;2022-07-29T05:14:59;3.58;;;2.10;;
34317;SDS011;20582;52.196;20.952;2022-07-29T05:17:25;4.88;;;2.38;;
34317;SDS011;20582;52.196;20.952;2022-07-29T05:19:51;6.55;;;2.28;;
34317;SDS011;20582;52.196;20.952;2022-07-29T05:22:18;6.53;;;2.42;;
34317;SDS011;20582;52.196;20.952;2022-07-29T05:24:44;5.70;;;2.80;;
34317;SDS011;20582;52.196;20.952;2022-07-29T05:27:10;8.20;;;2.92;;
34317;SDS011;20582;52.196;20.952;2022-07-29T05:29:36;7.43;;;2.67;;
34317;SDS011;20582;52.196;20.952;2022-07-29T05:32:03;7.82;;;2.80;;
34317;SDS011;20582;52.196;20.952;2022-07-29T05:34:29;6.97;;;2.55;;
34317;SDS011;20582;52.196;20.952;2022-07-29T05:36:55;8.10;;;2.80;;
34317;SDS011;20582;52.196;20.952;2022-07-29T05:39:22;6.40;;;2.55;;
34317;SDS011;20582;52.196;20.952;2022-07-29T05:41:48;6.50;;;2.33;;
34317;SDS011;20582;52.196;20.952;2022-07-29T05:44:14;6.50;;;2.60;;
34317;SDS011;20582;52.196;20.952;2022-07-29T05:46:40;6.70;;;2.30;;
34317;SDS011;20582;52.196;20.952;2022-07-29T05:49:06;10.93;;;3.05;;
34317;SDS011;20582;52.196;20.952;2022-07-29T05:51:32;7.78;;;2.40;;
34317;SDS011;20582;52.196;20.952;2022-07-29T05:53:58;7.38;;;2.50;;
34317;SDS011;20582;52.196;20.952;2022-07-29T05:56:25;7.55;;;2.28;;
34317;SDS011;20582;52.196;20.952;2022-07-29T05:58:51;5.45;;;2.10;;
34317;SDS011;20582;52.196;20.952;2022-07-29T06:01:17;3.42;;;1.83;;
34317;SDS011;20582;52.196;20.952;2022-07-29T06:03:43;4.30;;;2.10;;
34317;SDS011;20582;52.196;20.952;2022-07-29T06:06:09;7.15;;;2.35;;
34317;SDS011;20582;52.196;20.952;2022-07-29T06:08:36;12.40;;;2.83;;
34317;SDS011;20582;52.196;20.952;2022-07-29T06:11:02;58.30;;;7.35;;
34317;SDS011;20582;52.196;20.952;2022-07-29T06:13:29;10.95;;;2.95;;
34317;SDS011;20582;52.196;20.952;2022-07-29T06:15:55;14.35;;;2.20;;
34317;SDS011;20582;52.196;20.952;2022-07-29T06:18:21;5.70;;;1.90;;
34317;SDS011;20582;52.196;20.952;2022-07-29T06:20:51;17.42;;;3.65;;
34317;SDS011;20582;52.196;20.952;2022-07-29T06:23:18;10.95;;;2.85;;
34317;SDS011;20582;52.196;20.952;2022-07-29T06:25:44;9.00;;;2.10;;
34317;SDS011;20582;52.196;20.952;2022-07-29T06:28:10;7.78;;;2.22;;
34317;SDS011;20582;52.196;20.952;2022-07-29T06:30:36;8.18;;;2.53;;
34317;SDS011;20582;52.196;20.952;2022-07-29T06:33:02;10.13;;;2.58;;
34317;SDS011;20582;52.196;20.952;2022-07-29T06:35:29;6.40;;;2.50;;
34317;SDS011;20582;52.196;20.952;2022-07-29T06:37:55;7.78;;;1.92;;
34317;SDS011;20582;52.196;20.952;2022-07-29T06:40:21;7.68;;;2.05;;
34317;SDS011;20582;52.196;20.952;2022-07-29T06:43:06;9.50;;;2.30;;
34317;SDS011;20582;52.196;20.952;2022-07-29T06:45:35;10.15;;;2.30;;
34317;SDS011;20582;52.196;20.952;2022-07-29T06:48:01;10.60;;;2.80;;
34317;SDS011;20582;52.196;20.952;2022-07-29T06:50:27;9.95;;;2.85;;
34317;SDS011;20582;52.196;20.952;2022-07-29T06:52:53;6.88;;;2.00;;
34317;SDS011;20582;52.196;20.952;2022-07-29T06:55:19;7.63;;;2.03;;
34317;SDS011;20582;52.196;20.952;2022-07-29T06:57:45;7.25;;;2.05;;
34317;SDS011;20582;52.196;20.952;2022-07-29T07:00:12;6.00;;;1.83;;
34317;SDS011;20582;52.196;20.952;2022-07-29T07:02:38;6.25;;;1.90;;
34317;SDS011;20582;52.196;20.952;2022-07-29T07:05:04;5.72;;;1.70;;
34317;SDS011;20582;52.196;20.952;2022-07-29T07:07:30;9.05;;;2.15;;
34317;SDS011;20582;52.196;20.952;2022-07-29T07:09:56;7.13;;;1.80;;
34317;SDS011;20582;52.196;20.952;2022-07-29T07:12:22;4.88;;;1.67;;
34317;SDS011;20582;52.196;20.952;2022-07-29T07:14:50;5.65;;;2.05;;
34317;SDS011;20582;52.196;20.952;2022-07-29T07:17:16;6.68;;;1.83;;
34317;SDS011;20582;52.196;20.952;2022-07-29T07:19:42;5.55;;;1.63;;
34317;SDS011;20582;52.196;20.952;2022-07-29T07:22:08;5.55;;;1.48;;
34317;SDS011;20582;52.196;20.952;2022-07-29T07:24:34;4.65;;;1.52;;
34317;SDS011;20582;52.196;20.952;2022-07-29T07:27:00;9.45;;;1.73;;
34317;SDS011;20582;52.196;20.952;2022-07-29T07:29:26;6.10;;;1.60;;
34317;SDS011;20582;52.196;20.952;2022-07-29T07:31:52;12.18;;;2.53;;
34317;SDS011;20582;52.196;20.952;2022-07-29T07:34:19;4.93;;;1.70;;
34317;SDS011;20582;52.196;20.952;2022-07-29T07:36:45;6.95;;;1.80;;
34317;SDS011;20582;52.196;20.952;2022-07-29T07:39:11;9.05;;;1.60;;
34317;SDS011;20582;52.196;20.952;2022-07-29T07:41:37;5.35;;;1.90;;
34317;SDS011;20582;52.196;20.952;2022-07-29T07:44:03;7.82;;;1.90;;
34317;SDS011;20582;52.196;20.952;2022-07-29T07:46:29;8.70;;;2.00;;
34317;SDS011;20582;52.196;20.952;2022-07-29T07:48:55;4.93;;;1.80;;
34317;SDS011;20582;52.196;20.952;2022-07-29T07:51:21;6.93;;;1.75;;
34317;SDS011;20582;52.196;20.952;2022-07-29T07:53:47;8.15;;;1.40;;
34317;SDS011;20582;52.196;20.952;2022-07-29T07:56:15;10.00;;;2.67;;
34317;SDS011;20582;52.196;20.952;2022-07-29T07:58:41;8.32;;;1.65;;
34317;SDS011;20582;52.196;20.952;2022-07-29T08:01:07;5.75;;;1.80;;
34317;SDS011;20582;52.196;20.952;2022-07-29T08:03:33;6.68;;;1.90;;
34317;SDS011;20582;52.196;20.952;2022-07-29T08:06:00;6.53;;;1.42;;
34317;SDS011;20582;52.196;20.952;2022-07-29T08:08:26;7.13;;;1.77;;
34317;SDS011;20582;52.196;20.952;2022-07-29T08:10:52;5.15;;;1.70;;
34317;SDS011;20582;52.196;20.952;2022-07-29T08:13:18;6.95;;;1.63;;
34317;SDS011;20582;52.196;20.952;2022-07-29T08:15:45;6.15;;;1.58;;
34317;SDS011;20582;52.196;20.952;2022-07-29T08:18:11;6.35;;;1.55;;
34317;SDS011;20582;52.196;20.952;2022-07-29T08:20:38;7.03;;;2.08;;
34317;SDS011;20582;52.196;20.952;2022-07-29T08:23:05;4.25;;;1.60;;
34317;SDS011;20582;52.196;20.952;2022-07-29T08:25:40;6.35;;;2.00;;
34317;SDS011;20582;52.196;20.952;2022-07-29T08:28:06;3.97;;;1.58;;
34317;SDS011;20582;52.196;20.952;2022-07-29T08:30:32;6.88;;;1.55;;
34317;SDS011;20582;52.196;20.952;2022-07-29T08:32:58;7.15;;;1.52;;
34317;SDS011;20582;52.196;20.952;2022-07-29T08:35:25;5.03;;;1.60;;
34317;SDS011;20582;52.196;20.952;2022-07-29T08:37:51;8.75;;;1.75;;
34317;SDS011;20582;52.196;20.952;2022-07-29T08:40:18;6.22;;;1.85;;
34317;SDS011;20582;52.196;20.952;2022-07-29T08:42:45;2.92;;;1.20;;
34317;SDS011;20582;52.196;20.952;2022-07-29T08:45:11;7.07;;;1.92;;
34317;SDS011;20582;52.196;20.952;2022-07-29T08:47:38;6.88;;;2.00;;
34317;SDS011;20582;52.196;20.952;2022-07-29T08:50:08;6.88;;;1.80;;
34317;SDS011;20582;52.196;20.952;2022-07-29T08:52:37;5.40;;;2.42;;
34317;SDS011;20582;52.196;20.952;2022-07-29T08:55:04;6.72;;;2.08;;
34317;SDS011;20582;52.196;20.952;2022-07-29T08:57:30;16.13;;;2.90;;
34317;SDS011;20582;52.196;20.952;2022-07-29T08:59:57;6.80;;;1.80;;
34317;SDS011;20582;52.196;20.952;2022-07-29T09:02:23;9.80;;;1.88;;
34317;SDS011;20582;52.196;20.952;2022-07-29T09:04:51;6.18;;;1.70;;
34317;SDS011;20582;52.196;20.952;2022-07-29T09:07:18;4.70;;;1.38;;
34317;SDS011;20582;52.196;20.952;2022-07-29T09:09:46;4.80;;;1.75;;
34317;SDS011;20582;52.196;20.952;2022-07-29T09:12:17;6.43;;;1.70;;
34317;SDS011;20582;52.196;20.952;2022-07-29T09:14:43;8.85;;;1.65;;
34317;SDS011;20582;52.196;20.952;2022-07-29T09:17:09;6.80;;;1.95;;
34317;SDS011;20582;52.196;20.952;2022-07-29T09:19:36;8.05;;;1.23;;
34317;SDS011;20582;52.196;20.952;2022-07-29T09:22:06;6.00;;;1.83;;
34317;SDS011;20582;52.196;20.952;2022-07-29T09:27:00;5.72;;;1.63;;
34317;SDS011;20582;52.196;20.952;2022-07-29T09:29:26;8.18;;;2.00;;
34317;SDS011;20582;52.196;20.952;2022-07-29T09:31:53;7.38;;;1.80;;
34317;SDS011;20582;52.196;20.952;2022-07-29T09:34:23;4.97;;;1.60;;
34317;SDS011;20582;52.196;20.952;2022-07-29T09:36:53;6.18;;;1.60;;
34317;SDS011;20582;52.196;20.952;2022-07-29T09:42:15;4.93;;;1.90;;
34317;SDS011;20582;52.196;20.952;2022-07-29T09:44:53;4.50;;;1.50;;
34317;SDS011;20582;52.196;20.952;2022-07-29T09:47:19;3.45;;;1.60;;
34317;SDS011;20582;52.196;20.952;2022-07-29T09:49:50;11.25;;;2.22;;
34317;SDS011;20582;52.196;20.952;2022-07-29T09:54:42;5.93;;;1.65;;
34317;SDS011;20582;52.196;20.952;2022-07-29T09:57:09;5.18;;;1.48;;
34317;SDS011;20582;52.196;20.952;2022-07-29T09:59:37;3.72;;;1.50;;
34317;SDS011;20582;52.196;20.952;2022-07-29T10:02:12;7.15;;;1.90;;
34317;SDS011;20582;52.196;20.952;2022-07-29T10:04:42;22.17;;;3.70;;
34317;SDS011;20582;52.196;20.952;2022-07-29T10:07:08;18.65;;;3.35;;
34317;SDS011;20582;52.196;20.952;2022-07-29T10:09:34;23.00;;;4.05;;
34317;SDS011;20582;52.196;20.952;2022-07-29T10:12:04;10.63;;;2.28;;
34317;SDS011;20582;52.196;20.952;2022-07-29T10:14:31;8.38;;;1.77;;
34317;SDS011;20582;52.196;20.952;2022-07-29T10:16:58;4.00;;;1.50;;
34317;SDS011;20582;52.196;20.952;2022-07-29T10:19:25;4.43;;;1.50;;
34317;SDS011;20582;52.196;20.952;2022-07-29T10:21:52;6.55;;;1.80;;
34317;SDS011;20582;52.196;20.952;2022-07-29T10:24:18;6.97;;;2.00;;
34317;SDS011;20582;52.196;20.952;2022-07-29T10:26:45;17.58;;;2.70;;
34317;SDS011;20582;52.196;20.952;2022-07-29T10:29:12;20.33;;;2.67;;
34317;SDS011;20582;52.196;20.952;2022-07-29T10:31:50;10.23;;;1.70;;
34317;SDS011;20582;52.196;20.952;2022-07-29T10:34:22;5.47;;;1.73;;
34317;SDS011;20582;52.196;20.952;2022-07-29T10:42:06;5.95;;;1.73;;
34317;SDS011;20582;52.196;20.952;2022-07-29T10:44:39;6.82;;;1.60;;
34317;SDS011;20582;52.196;20.952;2022-07-29T10:47:05;1.98;;;1.35;;
34317;SDS011;20582;52.196;20.952;2022-07-29T10:49:31;10.43;;;1.70;;
34317;SDS011;20582;52.196;20.952;2022-07-29T10:52:02;9.70;;;2.00;;
34317;SDS011;20582;52.196;20.952;2022-07-29T10:54:47;19.50;;;2.60;;
34317;SDS011;20582;52.196;20.952;2022-07-29T11:05:16;11.45;;;2.78;;
34317;SDS011;20582;52.196;20.952;2022-07-29T11:10:28;7.40;;;1.70;;
34317;SDS011;20582;52.196;20.952;2022-07-29T11:12:54;7.15;;;1.73;;
34317;SDS011;20582;52.196;20.952;2022-07-29T11:15:21;6.45;;;1.75;;
34317;SDS011;20582;52.196;20.952;2022-07-29T11:22:57;5.88;;;1.80;;
34317;SDS011;20582;52.196;20.952;2022-07-29T11:25:24;3.85;;;1.20;;
34317;SDS011;20582;52.196;20.952;2022-07-29T11:27:51;3.47;;;1.38;;
34317;SDS011;20582;52.196;20.952;2022-07-29T11:30:18;9.02;;;1.90;;
34317;SDS011;20582;52.196;20.952;2022-07-29T11:32:44;13.43;;;2.40;;
34317;SDS011;20582;52.196;20.952;2022-07-29T11:37:37;5.60;;;1.85;;
34317;SDS011;20582;52.196;20.952;2022-07-29T11:45:03;9.65;;;2.22;;
34317;SDS011;20582;52.196;20.952;2022-07-29T11:47:30;12.52;;;1.85;;
34317;SDS011;20582;52.196;20.952;2022-07-29T11:49:57;6.00;;;1.33;;
34317;SDS011;20582;52.196;20.952;2022-07-29T11:52:41;3.20;;;1.30;;
34317;SDS011;20582;52.196;20.952;2022-07-29T11:55:08;7.28;;;1.55;;
34317;SDS011;20582;52.196;20.952;2022-07-29T11:57:35;7.97;;;1.60;;
34317;SDS011;20582;52.196;20.952;2022-07-29T12:00:02;4.65;;;1.30;;
34317;SDS011;20582;52.196;20.952;2022-07-29T12:02:38;6.78;;;1.60;;
34317;SDS011;20582;52.196;20.952;2022-07-29T12:05:04;6.38;;;1.30;;
34317;SDS011;20582;52.196;20.952;2022-07-29T12:07:31;7.10;;;1.80;;
34317;SDS011;20582;52.196;20.952;2022-07-29T12:09:57;3.72;;;1.35;;
34317;SDS011;20582;52.196;20.952;2022-07-29T12:12:23;8.20;;;1.60;;
34317;SDS011;20582;52.196;20.952;2022-07-29T12:14:49;6.43;;;1.48;;
34317;SDS011;20582;52.196;20.952;2022-07-29T12:17:28;4.82;;;1.38;;
34317;SDS011;20582;52.196;20.952;2022-07-29T12:19:55;4.45;;;1.40;;
34317;SDS011;20582;52.196;20.952;2022-07-29T12:22:25;6.43;;;1.40;;
34317;SDS011;20582;52.196;20.952;2022-07-29T12:24:51;1.83;;;1.00;;
34317;SDS011;20582;52.196;20.952;2022-07-29T12:27:17;4.07;;;1.50;;
34317;SDS011;20582;52.196;20.952;2022-07-29T12:29:43;2.72;;;1.30;;
34317;SDS011;20582;52.196;20.952;2022-07-29T12:32:09;5.65;;;1.50;;
34317;SDS011;20582;52.196;20.952;2022-07-29T12:34:41;5.13;;;1.35;;
34317;SDS011;20582;52.196;20.952;2022-07-29T12:37:08;2.72;;;1.20;;
34317;SDS011;20582;52.196;20.952;2022-07-29T12:39:35;2.67;;;1.20;;
34317;SDS011;20582;52.196;20.952;2022-07-29T12:42:09;15.30;;;1.98;;
34317;SDS011;20582;52.196;20.952;2022-07-29T12:44:45;5.75;;;1.33;;
34317;SDS011;20582;52.196;20.952;2022-07-29T12:47:12;8.60;;;1.63;;
34317;SDS011;20582;52.196;20.952;2022-07-29T12:49:39;8.82;;;2.00;;
34317;SDS011;20582;52.196;20.952;2022-07-29T12:54:50;9.63;;;2.38;;
34317;SDS011;20582;52.196;20.952;2022-07-29T12:57:16;16.50;;;2.80;;
34317;SDS011;20582;52.196;20.952;2022-07-29T12:59:42;11.45;;;1.85;;
34317;SDS011;20582;52.196;20.952;2022-07-29T13:02:19;10.40;;;1.67;;
34317;SDS011;20582;52.196;20.952;2022-07-29T13:04:54;8.73;;;1.90;;
34317;SDS011;20582;52.196;20.952;2022-07-29T13:07:23;11.07;;;1.90;;
34317;SDS011;20582;52.196;20.952;2022-07-29T13:09:50;11.15;;;2.00;;
34317;SDS011;20582;52.196;20.952;2022-07-29T13:12:16;5.55;;;1.75;;
34317;SDS011;20582;52.196;20.952;2022-07-29T13:14:43;6.18;;;1.50;;
34317;SDS011;20582;52.196;20.952;2022-07-29T13:19:44;9.07;;;1.85;;
34317;SDS011;20582;52.196;20.952;2022-07-29T13:22:11;4.17;;;1.43;;
34317;SDS011;20582;52.196;20.952;2022-07-29T13:24:47;6.07;;;1.50;;
34317;SDS011;20582;52.196;20.952;2022-07-29T13:27:15;6.20;;;1.67;;
34317;SDS011;20582;52.196;20.952;2022-07-29T13:29:41;8.93;;;2.00;;
34317;SDS011;20582;52.196;20.952;2022-07-29T13:32:07;23.63;;;3.22;;
34317;SDS011;20582;52.196;20.952;2022-07-29T13:34:33;17.13;;;3.42;;
34317;SDS011;20582;52.196;20.952;2022-07-29T13:36:59;6.22;;;2.05;;
34317;SDS011;20582;52.196;20.952;2022-07-29T13:39:25;11.15;;;1.77;;
34317;SDS011;20582;52.196;20.952;2022-07-29T13:41:51;8.90;;;1.65;;
34317;SDS011;20582;52.196;20.952;2022-07-29T13:44:17;4.63;;;1.17;;
34317;SDS011;20582;52.196;20.952;2022-07-29T13:46:43;5.07;;;1.45;;
34317;SDS011;20582;52.196;20.952;2022-07-29T13:49:09;4.57;;;1.70;;
34317;SDS011;20582;52.196;20.952;2022-07-29T13:51:36;6.90;;;1.48;;
34317;SDS011;20582;52.196;20.952;2022-07-29T13:54:02;11.48;;;2.08;;
34317;SDS011;20582;52.196;20.952;2022-07-29T13:56:28;7.07;;;1.58;;
34317;SDS011;20582;52.196;20.952;2022-07-29T13:58:54;20.00;;;3.28;;
34317;SDS011;20582;52.196;20.952;2022-07-29T14:01:20;5.93;;;1.40;;
34317;SDS011;20582;52.196;20.952;2022-07-29T14:03:46;5.05;;;1.50;;
34317;SDS011;20582;52.196;20.952;2022-07-29T14:06:12;15.55;;;2.80;;
34317;SDS011;20582;52.196;20.952;2022-07-29T14:08:38;47.25;;;6.55;;
34317;SDS011;20582;52.196;20.952;2022-07-29T14:11:05;14.68;;;2.80;;
34317;SDS011;20582;52.196;20.952;2022-07-29T14:13:31;31.08;;;4.70;;
34317;SDS011;20582;52.196;20.952;2022-07-29T14:15:57;33.45;;;4.60;;
34317;SDS011;20582;52.196;20.952;2022-07-29T14:18:23;5.15;;;1.58;;
34317;SDS011;20582;52.196;20.952;2022-07-29T14:20:49;5.00;;;1.52;;
34317;SDS011;20582;52.196;20.952;2022-07-29T14:23:16;9.27;;;1.88;;
34317;SDS011;20582;52.196;20.952;2022-07-29T14:25:42;5.22;;;1.60;;
34317;SDS011;20582;52.196;20.952;2022-07-29T14:28:08;4.70;;;1.63;;
34317;SDS011;20582;52.196;20.952;2022-07-29T14:30:34;10.13;;;1.90;;
34317;SDS011;20582;52.196;20.952;2022-07-29T14:33:00;6.15;;;1.70;;
34317;SDS011;20582;52.196;20.952;2022-07-29T14:35:26;5.30;;;1.60;;
34317;SDS011;20582;52.196;20.952;2022-07-29T14:37:52;16.45;;;2.45;;
34317;SDS011;20582;52.196;20.952;2022-07-29T14:40:19;7.60;;;1.58;;
34317;SDS011;20582;52.196;20.952;2022-07-29T14:42:45;7.78;;;1.75;;
34317;SDS011;20582;52.196;20.952;2022-07-29T14:45:11;7.50;;;1.60;;
34317;SDS011;20582;52.196;20.952;2022-07-29T14:47:37;13.57;;;2.05;;
34317;SDS011;20582;52.196;20.952;2022-07-29T14:50:04;5.22;;;1.40;;
34317;SDS011;20582;52.196;20.952;2022-07-29T14:52:30;8.85;;;1.90;;
34317;SDS011;20582;52.196;20.952;2022-07-29T14:54:56;8.18;;;1.65;;
34317;SDS011;20582;52.196;20.952;2022-07-29T14:57:22;5.90;;;1.40;;
34317;SDS011;20582;52.196;20.952;2022-07-29T14:59:48;3.95;;;1.50;;
34317;SDS011;20582;52.196;20.952;2022-07-29T15:02:14;5.50;;;1.48;;
34317;SDS011;20582;52.196;20.952;2022-07-29T15:04:40;6.85;;;1.38;;
34317;SDS011;20582;52.196;20.952;2022-07-29T15:07:06;3.53;;;1.20;;
34317;SDS011;20582;52.196;20.952;2022-07-29T15:09:33;6.72;;;1.48;;
34317;SDS011;20582;52.196;20.952;2022-07-29T15:11:59;5.18;;;1.58;;
34317;SDS011;20582;52.196;20.952;2022-07-29T15:14:25;10.18;;;1.50;;
34317;SDS011;20582;52.196;20.952;2022-07-29T15:16:51;4.28;;;1.42;;
34317;SDS011;20582;52.196;20.952;2022-07-29T15:19:17;4.68;;;1.30;;
34317;SDS011;20582;52.196;20.952;2022-07-29T15:21:43;3.97;;;1.20;;
34317;SDS011;20582;52.196;20.952;2022-07-29T15:24:09;5.22;;;1.63;;